This is the latest recevied weather packets stored in our database for station/object SQ9MHX-13. If no packets are shown the sender has not sent any weather packets the latest 10 day(s).
| Time | Temp. | Humidity | Pressure | Rain* | Wind** | Luminosity | Snow |
|---|---|---|---|---|---|---|---|
| 1777700163 | 12.22° C | 64% | 977.6 hPa | - | 0 m/s | - | - |
| 1777699865 | 12.22° C | 64% | 977.8 hPa | - | 0 m/s | - | - |
| 1777699566 | 12.22° C | 63% | 978 hPa | - | 0 m/s | - | - |
| 1777699268 | 11.11° C | 65% | 978.2 hPa | - | 0 m/s | - | - |
| 1777698969 | 11.11° C | 68% | 978.4 hPa | - | 0 m/s | - | - |
| 1777698671 | 12.78° C | 58% | 978.7 hPa | - | 0 m/s | - | - |
| 1777698372 | 11.11° C | 66% | 979.4 hPa | - | 0 m/s | - | - |
| 1777698074 | 11.11° C | 68% | 980.4 hPa | - | 0 m/s | - | - |
| 1777697775 | 11.11° C | 67% | 980.7 hPa | - | 0 m/s | - | - |
| 1777697477 | 11.11° C | 68% | 981.1 hPa | - | 0 m/s | - | - |
| 1777697178 | 10° C | 70% | 981.9 hPa | - | 0 m/s | - | - |
| 1777696880 | 8.89° C | 71% | 982.3 hPa | - | 0 m/s | - | - |
| 1777696582 | 10° C | 69% | 982.5 hPa | - | 0 m/s | - | - |
| 1777696283 | 10° C | 67% | 983 hPa | - | 0 m/s | - | - |
| 1777695687 | 8.89° C | 69% | 984.2 hPa | - | 0 m/s | - | - |
| 1777695388 | 8.89° C | 68% | 984.9 hPa | - | 0 m/s | - | - |
| 1777695090 | 7.78° C | 71% | 985.7 hPa | - | 0 m/s | - | - |
| 1777694792 | 7.78° C | 73% | 986.3 hPa | - | 0 m/s | - | - |
| 1777694525 | 7.22° C | 76% | 987.1 hPa | - | 0 m/s | - | - |
| 1777694494 | 7.22° C | 76% | 987.1 hPa | - | 0 m/s | - | - |
| 1777693897 | 6.11° C | 80% | 988 hPa | - | 0 m/s | - | - |
| 1777693599 | 6.11° C | 82% | 988.3 hPa | - | 0 m/s | - | - |
| 1777693301 | 6.11° C | 81% | 988.6 hPa | - | 0 m/s | - | - |
| 1777693003 | 5° C | 83% | 988.7 hPa | - | 0 m/s | - | - |
| 1777692705 | 5° C | 85% | 989.1 hPa | - | 0 m/s | - | - |
* Rain since midnight (hover to see other rain measurements)
** Current wind speed in m/s (hover to see current wind gust speed)